»·PEaware :: N416JK KSBA-KPSP

N416JK :: KSBA-KPSP

FLIGHT INFORMATION

Flight Status: Arrived
Operator: Privately registered:
United States
More flights under this callsign
Pilot: John K. (4202)
Aircraft: Unknown
(EPIC)
More flights by this aircraft type
Origin: KSBA Santa Barbara Mun
United States
Destination: KPSP Palm Springs Intl
United States
More flights between these airports :: More routes between these airports
Route: +HENER PMD V386 PSP
File this flight plan on PilotEdge
Remarks:
Altitude:
(Current/Filed)
11,000ft
Speed:
(Current/Filed)
250kts
Departed: 07-Jan-18 09:58 AM
Arrived: 07-Jan-18 10:54 AM
Distance/Time
Traveled:
169nm/0:56
Distance/Time
To Go:
Arrived

Flight Plot

Page will automatically refresh every two minutes.

Flight plan parsing failed; only flown route is shown


Map Options




Map Legend


Flown Route
Filed Route
Departure Airport
Arrival Airport
Navaid (VOR, NDB)
Fix

Horizontal Profiles

Position Reports

Time Latitude Longitude Heading Altitude Ground
Speed
07-Jan-18 09:45 34.432438 -119.835550 70 17ft 0kts
07-Jan-18 09:46 34.432438 -119.835550 70 17ft 0kts
07-Jan-18 09:47 34.432438 -119.835550 70 17ft 0kts
07-Jan-18 09:48 34.432438 -119.835550 70 17ft 0kts
07-Jan-18 09:49 34.432438 -119.835550 70 17ft 0kts
07-Jan-18 09:50 34.432438 -119.835550 70 17ft 0kts
07-Jan-18 09:51 34.432438 -119.835550 70 17ft 0kts
07-Jan-18 09:52 34.432438 -119.835550 70 17ft 0kts
07-Jan-18 09:53 34.432438 -119.835550 70 17ft 0kts
07-Jan-18 09:54 34.432438 -119.835550 70 17ft 0kts
07-Jan-18 09:55 34.432438 -119.835550 70 17ft 0kts
07-Jan-18 09:56 34.432438 -119.835550 70 17ft 0kts
07-Jan-18 09:57 34.432438 -119.835550 70 17ft 0kts
07-Jan-18 09:58 34.432438 -119.835550 70 17ft 0kts
07-Jan-18 09:59 34.432438 -119.835550 70 17ft 0kts
07-Jan-18 10:00 34.432438 -119.835550 70 17ft 0kts
07-Jan-18 10:01 34.432438 -119.835550 70 17ft 0kts
07-Jan-18 10:02 34.430373 -119.835327 177 17ft 23kts
07-Jan-18 10:03 34.429211 -119.835303 177 17ft 0kts
07-Jan-18 10:04 34.426182 -119.865021 263 411ft 173kts
07-Jan-18 10:05 34.420933 -119.937690 266 1215ft 253kts
07-Jan-18 10:06 34.415734 -120.022130 265 2224ft 247kts
07-Jan-18 10:07 34.363827 -120.039666 152 3382ft 245kts
07-Jan-18 10:08 34.318432 -119.985719 101 4572ft 244kts
07-Jan-18 10:09 34.318742 -119.905071 87 5752ft 244kts
07-Jan-18 10:10 34.320395 -119.824719 87 6926ft 243kts
07-Jan-18 10:11 34.322052 -119.742885 87 7943ft 249kts
07-Jan-18 10:12 34.323759 -119.656014 87 7967ft 272kts
07-Jan-18 10:13 34.325486 -119.563932 87 8385ft 272kts
07-Jan-18 10:14 34.327054 -119.477142 87 9543ft 259kts
07-Jan-18 10:15 34.328573 -119.390646 87 10739ft 262kts
07-Jan-18 10:16 34.330218 -119.294789 88 11001ft 311kts
07-Jan-18 10:17 34.340916 -119.191890 71 10947ft 314kts
07-Jan-18 10:18 34.365902 -119.095090 70 10877ft 313kts
07-Jan-18 10:19 34.391748 -118.996181 70 10826ft 313kts
07-Jan-18 10:20 34.416062 -118.902972 70 10818ft 312kts
07-Jan-18 10:21 34.442015 -118.804515 70 10815ft 311kts
07-Jan-18 10:22 34.467406 -118.706771 70 10880ft 309kts
07-Jan-18 10:23 34.492719 -118.608752 70 10963ft 309kts
07-Jan-18 10:24 34.517893 -118.510889 70 11022ft 309kts
07-Jan-18 10:25 34.543448 -118.411165 70 11043ft 310kts
07-Jan-18 10:26 34.568037 -118.314847 70 10990ft 312kts
07-Jan-18 10:27 34.593053 -118.216482 70 10989ft 311kts
07-Jan-18 10:28 34.618459 -118.116211 70 10985ft 311kts
07-Jan-18 10:29 34.626974 -118.015035 93 10983ft 315kts
07-Jan-18 10:30 34.617845 -117.910937 93 10981ft 315kts
07-Jan-18 10:31 34.609059 -117.807998 94 10979ft 315kts
07-Jan-18 10:32 34.599568 -117.702203 94 10981ft 315kts
07-Jan-18 10:33 34.590157 -117.598290 94 10982ft 315kts
07-Jan-18 10:34 34.580983 -117.497727 94 10982ft 315kts
07-Jan-18 10:35 34.571255 -117.392056 94 10983ft 315kts
07-Jan-18 10:36 34.561794 -117.290241 94 10983ft 316kts
07-Jan-18 10:37 34.553740 -117.204297 94 10982ft 316kts
07-Jan-18 10:38 34.542092 -117.082783 95 10992ft 313kts
07-Jan-18 10:39 34.532003 -116.977948 95 11029ft 312kts
07-Jan-18 10:40 34.523831 -116.893067 95 11064ft 314kts
07-Jan-18 10:41 34.512445 -116.772249 96 11064ft 315kts
07-Jan-18 10:42 34.496184 -116.687603 132 11051ft 316kts
07-Jan-18 10:43 34.405410 -116.640209 162 11063ft 314kts
07-Jan-18 10:44 34.337659 -116.612999 162 11052ft 315kts
07-Jan-18 10:45 34.254606 -116.580240 162 10887ft 311kts
07-Jan-18 10:46 34.177981 -116.550144 162 10049ft 278kts
07-Jan-18 10:47 34.110821 -116.523788 162 10018ft 239kts
07-Jan-18 10:48 34.051626 -116.500633 162 10007ft 218kts
07-Jan-18 10:49 33.995623 -116.478745 162 10008ft 208kts
07-Jan-18 10:50 33.942211 -116.457459 155 10006ft 203kts
07-Jan-18 10:51 33.897890 -116.418080 143 9198ft 197kts
07-Jan-18 10:52 33.855411 -116.383780 150 7766ft 178kts
07-Jan-18 10:53 33.812736 -116.358483 156 6289ft 170kts
07-Jan-18 10:54 33.768984 -116.344893 206 4462ft 179kts
07-Jan-18 10:55 33.748462 -116.390274 276 2415ft 144kts
07-Jan-18 10:56 33.762154 -116.432538 292 1458ft 143kts
07-Jan-18 10:57 33.787001 -116.468762 335 1163ft 131kts
07-Jan-18 10:58 33.808985 -116.489079 322 669ft 78kts
07-Jan-18 10:59 33.825674 -116.504171 324 481ft 43kts
07-Jan-18 11:00 33.827688 -116.507200 184 481ft 0kts
07-Jan-18 11:01 33.825363 -116.509661 174 481ft 16kts
07-Jan-18 11:02 33.825329 -116.509364 40 481ft 0kts

Navigation Log

Ident Type
Flight plan parsing failed, navigation log unavailable